sensor_id;sensor_type;location;lat;lon;timestamp;pressure;altitude;pressure_sealevel;temperature;humidity
11678;BME280;5895;41.950;24.372;2023-02-11T00:00:19;87869.13;;;-8.22;57.70
11678;BME280;5895;41.950;24.372;2023-02-11T00:02:46;87862.75;;;-8.28;57.97
11678;BME280;5895;41.950;24.372;2023-02-11T00:05:13;87874.66;;;-8.30;57.64
11678;BME280;5895;41.950;24.372;2023-02-11T00:07:40;87873.22;;;-8.34;58.26
11678;BME280;5895;41.950;24.372;2023-02-11T00:10:08;87866.16;;;-8.42;57.87
11678;BME280;5895;41.950;24.372;2023-02-11T00:12:37;87867.97;;;-8.44;58.10
11678;BME280;5895;41.950;24.372;2023-02-11T00:15:06;87874.81;;;-8.46;59.08
11678;BME280;5895;41.950;24.372;2023-02-11T00:17:33;87870.59;;;-8.45;58.66
11678;BME280;5895;41.950;24.372;2023-02-11T00:20:00;87869.16;;;-8.49;58.81
11678;BME280;5895;41.950;24.372;2023-02-11T00:22:27;87867.56;;;-8.50;58.80
11678;BME280;5895;41.950;24.372;2023-02-11T00:24:54;87865.75;;;-8.48;58.97
11678;BME280;5895;41.950;24.372;2023-02-11T00:27:21;87872.59;;;-8.50;59.11
11678;BME280;5895;41.950;24.372;2023-02-11T00:29:50;87865.94;;;-8.51;59.40
11678;BME280;5895;41.950;24.372;2023-02-11T00:32:17;87870.97;;;-8.51;59.18
11678;BME280;5895;41.950;24.372;2023-02-11T00:34:44;87864.13;;;-8.49;59.92
11678;BME280;5895;41.950;24.372;2023-02-11T00:37:12;87862.31;;;-8.47;59.49
11678;BME280;5895;41.950;24.372;2023-02-11T00:39:39;87854.78;;;-8.47;59.57
11678;BME280;5895;41.950;24.372;2023-02-11T00:42:06;87845.59;;;-8.48;59.42
11678;BME280;5895;41.950;24.372;2023-02-11T00:44:33;87854.06;;;-8.49;59.44
11678;BME280;5895;41.950;24.372;2023-02-11T00:47:02;87852.63;;;-8.54;59.59
11678;BME280;5895;41.950;24.372;2023-02-11T00:49:29;87856.06;;;-8.55;59.00
11678;BME280;5895;41.950;24.372;2023-02-11T00:51:56;87866.94;;;-8.54;59.14
11678;BME280;5895;41.950;24.372;2023-02-11T00:54:23;87853.53;;;-8.55;58.92
11678;BME280;5895;41.950;24.372;2023-02-11T00:56:50;87856.06;;;-8.55;58.90
11678;BME280;5895;41.950;24.372;2023-02-11T00:59:17;87853.44;;;-8.53;58.68
11678;BME280;5895;41.950;24.372;2023-02-11T01:01:44;87844.22;;;-8.52;59.06
11678;BME280;5895;41.950;24.372;2023-02-11T01:04:13;87844.22;;;-8.52;58.55
11678;BME280;5895;41.950;24.372;2023-02-11T01:06:40;87845.91;;;-8.53;58.83
11678;BME280;5895;41.950;24.372;2023-02-11T01:09:07;87850.03;;;-8.52;58.33
11678;BME280;5895;41.950;24.372;2023-02-11T01:11:34;87845.81;;;-8.51;58.25
11678;BME280;5895;41.950;24.372;2023-02-11T01:14:01;87842.41;;;-8.50;58.09
11678;BME280;5895;41.950;24.372;2023-02-11T01:16:28;87835.38;;;-8.45;58.10
11678;BME280;5895;41.950;24.372;2023-02-11T01:18:56;87838.78;;;-8.46;57.56
11678;BME280;5895;41.950;24.372;2023-02-11T01:21:24;87836.97;;;-8.44;56.94
11678;BME280;5895;41.950;24.372;2023-02-11T01:23:52;87835.16;;;-8.42;57.11
11678;BME280;5895;41.950;24.372;2023-02-11T01:26:19;87844.69;;;-8.47;57.18
11678;BME280;5895;41.950;24.372;2023-02-11T01:28:46;87836.47;;;-8.49;56.30
11678;BME280;5895;41.950;24.372;2023-02-11T01:31:14;87844.38;;;-8.56;56.68
11678;BME280;5895;41.950;24.372;2023-02-11T01:33:41;87836.31;;;-8.61;56.36
11678;BME280;5895;41.950;24.372;2023-02-11T01:36:09;87825.84;;;-8.67;56.16
11678;BME280;5895;41.950;24.372;2023-02-11T01:38:38;87833.47;;;-8.69;56.11
11678;BME280;5895;41.950;24.372;2023-02-11T01:41:08;87823.41;;;-8.69;56.36
11678;BME280;5895;41.950;24.372;2023-02-11T01:43:38;87821.59;;;-8.67;56.17
11678;BME280;5895;41.950;24.372;2023-02-11T01:46:19;87818.19;;;-8.66;55.23
11678;BME280;5895;41.950;24.372;2023-02-11T01:48:49;87819.78;;;-8.65;56.35
11678;BME280;5895;41.950;24.372;2023-02-11T01:51:21;87810.47;;;-8.63;54.93
11678;BME280;5895;41.950;24.372;2023-02-11T01:53:52;87810.53;;;-8.64;54.48
11678;BME280;5895;41.950;24.372;2023-02-11T01:56:40;87803.81;;;-8.64;54.75
11678;BME280;5895;41.950;24.372;2023-02-11T01:59:26;87809.72;;;-8.65;54.52
11678;BME280;5895;41.950;24.372;2023-02-11T02:01:57;87815.66;;;-8.66;55.07
11678;BME280;5895;41.950;24.372;2023-02-11T02:04:28;87805.44;;;-8.63;55.21
11678;BME280;5895;41.950;24.372;2023-02-11T02:07:01;87815.66;;;-8.66;54.01
11678;BME280;5895;41.950;24.372;2023-02-11T02:09:35;87804.63;;;-8.63;53.76
11678;BME280;5895;41.950;24.372;2023-02-11T02:12:04;87804.63;;;-8.63;54.04
11678;BME280;5895;41.950;24.372;2023-02-11T02:14:31;87795.38;;;-8.63;54.20
11678;BME280;5895;41.950;24.372;2023-02-11T02:16:58;87810.47;;;-8.63;53.58
11678;BME280;5895;41.950;24.372;2023-02-11T02:19:50;87800.47;;;-8.64;52.20
11678;BME280;5895;41.950;24.372;2023-02-11T02:22:52;87797.88;;;-8.63;51.14
11678;BME280;5895;41.950;24.372;2023-02-11T02:26:00;87806.03;;;-8.59;51.77
11678;BME280;5895;41.950;24.372;2023-02-11T02:28:51;87800.94;;;-8.58;52.26
11678;BME280;5895;41.950;24.372;2023-02-11T02:31:34;87810.19;;;-8.58;52.89
11678;BME280;5895;41.950;24.372;2023-02-11T02:34:12;87804.84;;;-8.54;53.12
11678;BME280;5895;41.950;24.372;2023-02-11T02:36:48;87803.13;;;-8.53;53.16
11678;BME280;5895;41.950;24.372;2023-02-11T02:39:21;87810.78;;;-8.55;53.89
11678;BME280;5895;41.950;24.372;2023-02-11T02:41:50;87824.09;;;-8.52;53.43
11678;BME280;5895;41.950;24.372;2023-02-11T02:44:19;87816.53;;;-8.52;53.56
11678;BME280;5895;41.950;24.372;2023-02-11T02:46:47;87815.63;;;-8.51;53.58
11678;BME280;5895;41.950;24.372;2023-02-11T02:49:16;87812.22;;;-8.50;53.16
11678;BME280;5895;41.950;24.372;2023-02-11T02:51:59;87813.81;;;-8.49;52.67
11678;BME280;5895;41.950;24.372;2023-02-11T02:57:28;87816.91;;;-8.59;52.37
11678;BME280;5895;41.950;24.372;2023-02-11T03:00:07;87824.66;;;-8.62;53.15
11678;BME280;5895;41.950;24.372;2023-02-11T03:02:43;87825.03;;;-8.68;53.02
11678;BME280;5895;41.950;24.372;2023-02-11T03:05:22;87820.19;;;-8.71;53.17
11678;BME280;5895;41.950;24.372;2023-02-11T03:07:57;87820.38;;;-8.74;53.44
11678;BME280;5895;41.950;24.372;2023-02-11T03:10:28;87830.63;;;-8.77;54.25
11678;BME280;5895;41.950;24.372;2023-02-11T03:12:56;87819.84;;;-8.79;54.42
11678;BME280;5895;41.950;24.372;2023-02-11T03:15:26;87822.53;;;-8.82;53.98
11678;BME280;5895;41.950;24.372;2023-02-11T03:17:57;87824.47;;;-8.86;54.07
11678;BME280;5895;41.950;24.372;2023-02-11T03:20:27;87821.31;;;-8.89;53.96
11678;BME280;5895;41.950;24.372;2023-02-11T03:23:00;87818.28;;;-8.94;54.51
11678;BME280;5895;41.950;24.372;2023-02-11T03:25:33;87820.00;;;-8.95;55.00
11678;BME280;5895;41.950;24.372;2023-02-11T03:28:07;87818.28;;;-8.94;54.92
11678;BME280;5895;41.950;24.372;2023-02-11T03:30:40;87819.34;;;-8.98;54.78
11678;BME280;5895;41.950;24.372;2023-02-11T03:33:13;87818.66;;;-9.00;54.83
11678;BME280;5895;41.950;24.372;2023-02-11T03:35:48;87819.66;;;-9.03;55.44
11678;BME280;5895;41.950;24.372;2023-02-11T03:38:19;87815.59;;;-9.06;55.12
11678;BME280;5895;41.950;24.372;2023-02-11T03:40:49;87810.59;;;-9.06;55.71
11678;BME280;5895;41.950;24.372;2023-02-11T03:43:18;87803.94;;;-9.07;55.14
11678;BME280;5895;41.950;24.372;2023-02-11T03:45:49;87812.41;;;-9.08;55.19
11678;BME280;5895;41.950;24.372;2023-02-11T03:48:20;87807.38;;;-9.08;55.02
11678;BME280;5895;41.950;24.372;2023-02-11T03:50:51;87814.00;;;-9.07;55.05
11678;BME280;5895;41.950;24.372;2023-02-11T03:53:20;87816.41;;;-9.05;55.08
11678;BME280;5895;41.950;24.372;2023-02-11T03:55:50;87807.38;;;-9.08;55.10
11678;BME280;5895;41.950;24.372;2023-02-11T03:58:18;87811.66;;;-9.10;55.24
11678;BME280;5895;41.950;24.372;2023-02-11T04:00:45;87809.34;;;-9.13;54.96
11678;BME280;5895;41.950;24.372;2023-02-11T04:03:12;87809.44;;;-9.14;55.51
11678;BME280;5895;41.950;24.372;2023-02-11T04:05:40;87807.91;;;-9.17;54.84
11678;BME280;5895;41.950;24.372;2023-02-11T04:08:08;87801.28;;;-9.18;54.70
11678;BME280;5895;41.950;24.372;2023-02-11T04:10:35;87809.72;;;-9.19;55.45
11678;BME280;5895;41.950;24.372;2023-02-11T04:13:03;87813.16;;;-9.20;55.31
11678;BME280;5895;41.950;24.372;2023-02-11T04:15:30;87809.09;;;-9.22;55.33
11678;BME280;5895;41.950;24.372;2023-02-11T04:17:57;87808.28;;;-9.23;55.24
11678;BME280;5895;41.950;24.372;2023-02-11T04:20:24;87803.25;;;-9.23;54.22
11678;BME280;5895;41.950;24.372;2023-02-11T04:22:51;87804.59;;;-9.32;54.53
11678;BME280;5895;41.950;24.372;2023-02-11T04:25:20;87809.03;;;-9.35;54.31
11678;BME280;5895;41.950;24.372;2023-02-11T04:27:47;87806.16;;;-9.43;54.33
11678;BME280;5895;41.950;24.372;2023-02-11T04:30:14;87803.94;;;-9.48;53.92
11678;BME280;5895;41.950;24.372;2023-02-11T04:32:41;87806.72;;;-9.52;54.28
11678;BME280;5895;41.950;24.372;2023-02-11T04:35:08;87796.84;;;-9.55;53.82
11678;BME280;5895;41.950;24.372;2023-02-11T04:37:35;87803.78;;;-9.59;53.85
11678;BME280;5895;41.950;24.372;2023-02-11T04:40:03;87802.13;;;-9.60;53.46
11678;BME280;5895;41.950;24.372;2023-02-11T04:42:32;87802.22;;;-9.62;53.98
11678;BME280;5895;41.950;24.372;2023-02-11T04:44:59;87804.66;;;-9.60;53.87
11678;BME280;5895;41.950;24.372;2023-02-11T04:47:26;87798.66;;;-9.57;54.47
11678;BME280;5895;41.950;24.372;2023-02-11T04:49:53;87797.66;;;-9.55;54.07
11678;BME280;5895;41.950;24.372;2023-02-11T04:52:20;87796.84;;;-9.55;53.82
11678;BME280;5895;41.950;24.372;2023-02-11T04:54:47;87791.72;;;-9.54;53.14
11678;BME280;5895;41.950;24.372;2023-02-11T04:57:15;87792.56;;;-9.53;53.54
11678;BME280;5895;41.950;24.372;2023-02-11T04:59:43;87790.84;;;-9.53;53.22
11678;BME280;5895;41.950;24.372;2023-02-11T05:02:10;87788.25;;;-9.51;53.66
11678;BME280;5895;41.950;24.372;2023-02-11T05:04:37;87790.53;;;-9.48;52.88
11678;BME280;5895;41.950;24.372;2023-02-11T05:07:05;87784.66;;;-9.47;52.82
11678;BME280;5895;41.950;24.372;2023-02-11T05:09:32;87787.88;;;-9.45;53.00
11678;BME280;5895;41.950;24.372;2023-02-11T05:11:59;87791.44;;;-9.49;52.84
11678;BME280;5895;41.950;24.372;2023-02-11T05:14:26;87786.53;;;-9.51;52.86
11678;BME280;5895;41.950;24.372;2023-02-11T05:16:54;87781.41;;;-9.49;52.65
11678;BME280;5895;41.950;24.372;2023-02-11T05:19:22;87783.00;;;-9.48;52.74
11678;BME280;5895;41.950;24.372;2023-02-11T05:21:49;87797.22;;;-9.47;53.04
11678;BME280;5895;41.950;24.372;2023-02-11T05:24:18;87795.56;;;-9.48;52.40
11678;BME280;5895;41.950;24.372;2023-02-11T05:26:45;87789.31;;;-9.55;52.22
11678;BME280;5895;41.950;24.372;2023-02-11T05:29:12;87788.78;;;-9.61;52.64
11678;BME280;5895;41.950;24.372;2023-02-11T05:31:39;87796.56;;;-9.65;52.74
11678;BME280;5895;41.950;24.372;2023-02-11T05:34:08;87798.38;;;-9.67;52.51
11678;BME280;5895;41.950;24.372;2023-02-11T05:36:35;87796.66;;;-9.67;52.88
11678;BME280;5895;41.950;24.372;2023-02-11T05:39:02;87793.97;;;-9.78;52.40
11678;BME280;5895;41.950;24.372;2023-02-11T05:41:29;87789.50;;;-9.73;52.48
11678;BME280;5895;41.950;24.372;2023-02-11T05:43:57;87790.94;;;-9.69;52.46
11678;BME280;5895;41.950;24.372;2023-02-11T05:46:24;87804.19;;;-9.67;53.05
11678;BME280;5895;41.950;24.372;2023-02-11T05:48:51;87803.84;;;-9.61;52.83
11678;BME280;5895;41.950;24.372;2023-02-11T05:51:19;87801.44;;;-9.62;52.89
11678;BME280;5895;41.950;24.372;2023-02-11T05:53:46;87802.13;;;-9.60;53.03
11678;BME280;5895;41.950;24.372;2023-02-11T05:56:13;87801.06;;;-9.56;52.21
11678;BME280;5895;41.950;24.372;2023-02-11T05:58:41;87802.50;;;-9.52;51.79
11678;BME280;5895;41.950;24.372;2023-02-11T06:01:08;87801.50;;;-9.49;52.68
11678;BME280;5895;41.950;24.372;2023-02-11T06:03:35;87803.09;;;-9.48;52.16
11678;BME280;5895;41.950;24.372;2023-02-11T06:06:02;87808.13;;;-9.48;52.62
11678;BME280;5895;41.950;24.372;2023-02-11T06:08:31;87811.38;;;-9.46;52.82
11678;BME280;5895;41.950;24.372;2023-02-11T06:10:58;87809.03;;;-9.49;52.28
11678;BME280;5895;41.950;24.372;2023-02-11T06:13:25;87803.09;;;-9.48;52.67
11678;BME280;5895;41.950;24.372;2023-02-11T06:15:56;87804.91;;;-9.50;52.79
11678;BME280;5895;41.950;24.372;2023-02-11T06:18:23;87801.88;;;-9.55;53.05
11678;BME280;5895;41.950;24.372;2023-02-11T06:20:50;87799.00;;;-9.64;52.59
11678;BME280;5895;41.950;24.372;2023-02-11T06:23:17;87805.28;;;-9.56;53.23
11678;BME280;5895;41.950;24.372;2023-02-11T06:25:46;87808.69;;;-9.57;52.14
11678;BME280;5895;41.950;24.372;2023-02-11T06:28:13;87805.00;;;-9.52;53.09
11678;BME280;5895;41.950;24.372;2023-02-11T06:30:40;87803.09;;;-9.48;52.80
11678;BME280;5895;41.950;24.372;2023-02-11T06:33:07;87795.88;;;-9.53;52.33
11678;BME280;5895;41.950;24.372;2023-02-11T06:35:37;87796.84;;;-9.55;52.86
11678;BME280;5895;41.950;24.372;2023-02-11T06:38:04;87800.97;;;-9.54;52.63
11678;BME280;5895;41.950;24.372;2023-02-11T06:40:31;87800.69;;;-9.50;53.38
11678;BME280;5895;41.950;24.372;2023-02-11T06:43:00;87800.69;;;-9.50;52.66
11678;BME280;5895;41.950;24.372;2023-02-11T06:45:27;87799.72;;;-9.47;53.61
11678;BME280;5895;41.950;24.372;2023-02-11T06:47:54;87804.38;;;-9.41;52.63
11678;BME280;5895;41.950;24.372;2023-02-11T06:50:21;87798.06;;;-9.34;52.69
11678;BME280;5895;41.950;24.372;2023-02-11T06:52:49;87792.41;;;-9.23;52.93
11678;BME280;5895;41.950;24.372;2023-02-11T06:55:16;87794.88;;;-9.09;52.05
11678;BME280;5895;41.950;24.372;2023-02-11T06:57:43;87790.38;;;-8.77;51.80
11678;BME280;5895;41.950;24.372;2023-02-11T07:00:13;87791.31;;;-8.38;51.47
11678;BME280;5895;41.950;24.372;2023-02-11T07:02:40;87799.56;;;-8.11;50.82
11678;BME280;5895;41.950;24.372;2023-02-11T07:05:08;87797.56;;;-7.80;51.01
11678;BME280;5895;41.950;24.372;2023-02-11T07:07:35;87789.09;;;-7.54;51.13
11678;BME280;5895;41.950;24.372;2023-02-11T07:10:02;87795.31;;;-7.21;50.51
11678;BME280;5895;41.950;24.372;2023-02-11T07:12:30;87791.84;;;-6.95;49.80
11678;BME280;5895;41.950;24.372;2023-02-11T07:14:58;87784.22;;;-6.58;49.82
11678;BME280;5895;41.950;24.372;2023-02-11T07:17:26;87786.81;;;-6.23;49.17
11678;BME280;5895;41.950;24.372;2023-02-11T07:19:54;87785.53;;;-5.93;49.18
11678;BME280;5895;41.950;24.372;2023-02-11T07:22:21;87785.44;;;-5.58;49.18
11678;BME280;5895;41.950;24.372;2023-02-11T07:24:48;87779.47;;;-5.23;48.61
11678;BME280;5895;41.950;24.372;2023-02-11T07:27:15;87776.94;;;-4.90;48.65
11678;BME280;5895;41.950;24.372;2023-02-11T07:29:42;87769.53;;;-4.59;48.27
11678;BME280;5895;41.950;24.372;2023-02-11T07:32:10;87763.19;;;-4.21;47.73
11678;BME280;5895;41.950;24.372;2023-02-11T07:34:39;87762.16;;;-3.87;47.27
11678;BME280;5895;41.950;24.372;2023-02-11T07:37:06;87758.13;;;-3.48;47.57
11678;BME280;5895;41.950;24.372;2023-02-11T07:39:33;87762.84;;;-3.12;47.47
11678;BME280;5895;41.950;24.372;2023-02-11T07:42:01;87755.91;;;-2.80;46.83
11678;BME280;5895;41.950;24.372;2023-02-11T07:44:29;87755.03;;;-2.50;46.78
11678;BME280;5895;41.950;24.372;2023-02-11T07:46:57;87758.69;;;-2.14;46.73
11678;BME280;5895;41.950;24.372;2023-02-11T07:49:24;87757.50;;;-1.80;46.29
11678;BME280;5895;41.950;24.372;2023-02-11T07:51:53;87759.94;;;-1.50;46.09
11678;BME280;5895;41.950;24.372;2023-02-11T07:54:20;87757.97;;;-1.19;46.02
11678;BME280;5895;41.950;24.372;2023-02-11T07:56:48;87759.78;;;-0.82;45.84
11678;BME280;5895;41.950;24.372;2023-02-11T07:59:15;87747.56;;;-0.51;45.76
11678;BME280;5895;41.950;24.372;2023-02-11T08:01:42;87743.94;;;-0.21;45.68
11678;BME280;5895;41.950;24.372;2023-02-11T08:04:10;87746.16;;;0.10;46.07
11678;BME280;5895;41.950;24.372;2023-02-11T08:06:40;87748.00;;;0.35;45.14
11678;BME280;5895;41.950;24.372;2023-02-11T08:09:13;87754.31;;;0.67;45.43
11678;BME280;5895;41.950;24.372;2023-02-11T08:11:40;87756.09;;;0.92;45.68
11678;BME280;5895;41.950;24.372;2023-02-11T08:14:08;87754.66;;;1.16;45.10
11678;BME280;5895;41.950;24.372;2023-02-11T08:16:36;87750.63;;;1.39;44.44
11678;BME280;5895;41.950;24.372;2023-02-11T08:19:05;87762.59;;;1.65;45.18
11678;BME280;5895;41.950;24.372;2023-02-11T08:21:34;87749.44;;;1.94;45.43
11678;BME280;5895;41.950;24.372;2023-02-11T08:24:02;87750.97;;;2.21;44.60
11678;BME280;5895;41.950;24.372;2023-02-11T08:26:32;87749.72;;;2.49;42.48
11678;BME280;5895;41.950;24.372;2023-02-11T08:29:01;87743.66;;;2.75;44.42
11678;BME280;5895;41.950;24.372;2023-02-11T08:31:31;87745.91;;;3.02;43.95
11678;BME280;5895;41.950;24.372;2023-02-11T08:33:59;87747.50;;;3.19;44.24
11678;BME280;5895;41.950;24.372;2023-02-11T08:36:28;87745.53;;;3.46;43.69
11678;BME280;5895;41.950;24.372;2023-02-11T08:38:56;87741.59;;;3.75;44.41
11678;BME280;5895;41.950;24.372;2023-02-11T08:41:25;87741.03;;;4.04;44.37
11678;BME280;5895;41.950;24.372;2023-02-11T08:43:53;87742.53;;;4.29;42.65
11678;BME280;5895;41.950;24.372;2023-02-11T08:46:21;87736.44;;;4.53;44.06
11678;BME280;5895;41.950;24.372;2023-02-11T08:48:48;87735.34;;;4.78;44.26
11678;BME280;5895;41.950;24.372;2023-02-11T08:51:18;87735.50;;;5.00;43.66
11678;BME280;5895;41.950;24.372;2023-02-11T08:53:45;87733.34;;;5.26;43.91
11678;BME280;5895;41.950;24.372;2023-02-11T08:56:14;87736.00;;;5.56;43.90
11678;BME280;5895;41.950;24.372;2023-02-11T08:58:42;87736.09;;;5.77;44.01
11678;BME280;5895;41.950;24.372;2023-02-11T09:01:11;87739.50;;;5.93;43.27
11678;BME280;5895;41.950;24.372;2023-02-11T09:03:39;87737.22;;;6.13;44.12
11678;BME280;5895;41.950;24.372;2023-02-11T09:06:07;87739.41;;;6.30;43.43
11678;BME280;5895;41.950;24.372;2023-02-11T09:08:35;87737.50;;;6.54;44.62
11678;BME280;5895;41.950;24.372;2023-02-11T09:11:03;87738.91;;;6.71;44.18
11678;BME280;5895;41.950;24.372;2023-02-11T09:13:31;87734.69;;;6.85;44.08
11678;BME280;5895;41.950;24.372;2023-02-11T09:15:58;87735.47;;;7.07;44.03
11678;BME280;5895;41.950;24.372;2023-02-11T09:18:28;87735.47;;;7.28;43.55
11678;BME280;5895;41.950;24.372;2023-02-11T09:21:01;87737.44;;;7.48;37.94
11678;BME280;5895;41.950;24.372;2023-02-11T09:23:28;87731.16;;;7.57;43.66
11678;BME280;5895;41.950;24.372;2023-02-11T09:25:55;87732.47;;;7.74;43.43
11678;BME280;5895;41.950;24.372;2023-02-11T09:28:22;87731.22;;;7.91;42.63
11678;BME280;5895;41.950;24.372;2023-02-11T09:30:50;87723.31;;;8.00;43.56
11678;BME280;5895;41.950;24.372;2023-02-11T09:33:17;87731.75;;;8.15;43.18
11678;BME280;5895;41.950;24.372;2023-02-11T09:35:45;87727.88;;;8.32;40.07
11678;BME280;5895;41.950;24.372;2023-02-11T09:38:12;87730.78;;;8.51;43.24
11678;BME280;5895;41.950;24.372;2023-02-11T09:40:41;87732.03;;;8.61;41.13
11678;BME280;5895;41.950;24.372;2023-02-11T09:43:14;87724.91;;;8.77;37.31
11678;BME280;5895;41.950;24.372;2023-02-11T09:45:43;87724.38;;;8.94;43.71
11678;BME280;5895;41.950;24.372;2023-02-11T09:48:14;87725.41;;;9.07;40.16
11678;BME280;5895;41.950;24.372;2023-02-11T09:50:43;87722.03;;;9.19;42.69
11678;BME280;5895;41.950;24.372;2023-02-11T09:53:18;87717.47;;;9.28;35.67
11678;BME280;5895;41.950;24.372;2023-02-11T09:55:50;87710.50;;;9.42;41.16
11678;BME280;5895;41.950;24.372;2023-02-11T09:58:24;87706.75;;;9.58;39.11
11678;BME280;5895;41.950;24.372;2023-02-11T10:00:59;87713.53;;;9.72;36.80
11678;BME280;5895;41.950;24.372;2023-02-11T10:03:51;87704.13;;;10.04;32.51
11678;BME280;5895;41.950;24.372;2023-02-11T10:06:35;87700.53;;;10.12;34.10
11678;BME280;5895;41.950;24.372;2023-02-11T10:09:19;87695.53;;;10.30;32.78
11678;BME280;5895;41.950;24.372;2023-02-11T10:11:52;87685.94;;;10.44;39.18
11678;BME280;5895;41.950;24.372;2023-02-11T10:14:34;87683.84;;;10.66;35.68
11678;BME280;5895;41.950;24.372;2023-02-11T10:17:16;87679.44;;;10.73;35.78
11678;BME280;5895;41.950;24.372;2023-02-11T10:19:58;87681.97;;;10.86;35.51
11678;BME280;5895;41.950;24.372;2023-02-11T10:22:32;87676.53;;;10.94;35.72
11678;BME280;5895;41.950;24.372;2023-02-11T10:25:17;87677.25;;;11.15;30.87
11678;BME280;5895;41.950;24.372;2023-02-11T10:27:46;87659.00;;;11.21;43.11
11678;BME280;5895;41.950;24.372;2023-02-11T10:30:20;87663.97;;;11.29;34.21
11678;BME280;5895;41.950;24.372;2023-02-11T10:32:52;87663.53;;;11.32;38.21
11678;BME280;5895;41.950;24.372;2023-02-11T10:35:22;87661.91;;;11.38;41.81
11678;BME280;5895;41.950;24.372;2023-02-11T10:37:51;87660.44;;;11.49;42.69
11678;BME280;5895;41.950;24.372;2023-02-11T10:40:21;87650.94;;;11.61;37.81
11678;BME280;5895;41.950;24.372;2023-02-11T10:42:50;87653.88;;;11.71;42.14
11678;BME280;5895;41.950;24.372;2023-02-11T10:45:23;87646.81;;;11.78;35.98
11678;BME280;5895;41.950;24.372;2023-02-11T10:47:50;87625.16;;;11.91;42.21
11678;BME280;5895;41.950;24.372;2023-02-11T10:50:22;87644.22;;;12.03;41.14
11678;BME280;5895;41.950;24.372;2023-02-11T10:52:49;87643.69;;;12.20;42.21
11678;BME280;5895;41.950;24.372;2023-02-11T10:55:20;87637.53;;;12.32;41.02
11678;BME280;5895;41.950;24.372;2023-02-11T10:57:53;87635.72;;;12.33;34.48
11678;BME280;5895;41.950;24.372;2023-02-11T11:00:35;87624.25;;;12.40;29.29
11678;BME280;5895;41.950;24.372;2023-02-11T11:03:05;87632.56;;;12.49;40.81
11678;BME280;5895;41.950;24.372;2023-02-11T11:05:35;87630.88;;;12.55;39.58
11678;BME280;5895;41.950;24.372;2023-02-11T11:08:05;87621.56;;;12.65;41.88
11678;BME280;5895;41.950;24.372;2023-02-11T11:10:42;87624.88;;;12.91;31.64
11678;BME280;5895;41.950;24.372;2023-02-11T11:13:25;87616.72;;;12.99;30.14
11678;BME280;5895;41.950;24.372;2023-02-11T11:16:23;87610.63;;;13.05;27.49
11678;BME280;5895;41.950;24.372;2023-02-11T11:18:52;87613.81;;;13.07;41.33
11678;BME280;5895;41.950;24.372;2023-02-11T11:21:22;87606.84;;;13.19;38.57
11678;BME280;5895;41.950;24.372;2023-02-11T11:23:53;87596.78;;;13.23;37.74
11678;BME280;5895;41.950;24.372;2023-02-11T11:26:23;87595.69;;;13.31;38.14
11678;BME280;5895;41.950;24.372;2023-02-11T11:28:57;87596.50;;;13.43;35.21
11678;BME280;5895;41.950;24.372;2023-02-11T11:31:28;87601.25;;;13.46;39.17
11678;BME280;5895;41.950;24.372;2023-02-11T11:33:58;87595.88;;;13.59;39.27
11678;BME280;5895;41.950;24.372;2023-02-11T11:36:33;87586.91;;;13.67;33.54
11678;BME280;5895;41.950;24.372;2023-02-11T11:39:16;87590.78;;;13.76;39.57
11678;BME280;5895;41.950;24.372;2023-02-11T11:41:54;87587.72;;;13.91;30.66
11678;BME280;5895;41.950;24.372;2023-02-11T11:44:27;87591.81;;;13.87;32.77
11678;BME280;5895;41.950;24.372;2023-02-11T11:47:11;87577.97;;;13.98;29.83
11678;BME280;5895;41.950;24.372;2023-02-11T11:49:46;87570.94;;;13.98;37.27
11678;BME280;5895;41.950;24.372;2023-02-11T11:52:19;87579.09;;;14.02;34.21
11678;BME280;5895;41.950;24.372;2023-02-11T11:54:58;87572.88;;;14.03;40.11
11678;BME280;5895;41.950;24.372;2023-02-11T11:57:36;87571.38;;;14.07;40.65
11678;BME280;5895;41.950;24.372;2023-02-11T12:00:05;87570.59;;;14.07;39.31
11678;BME280;5895;41.950;24.372;2023-02-11T12:06:20;87561.06;;;14.12;28.19
11678;BME280;5895;41.950;24.372;2023-02-11T12:08:57;87564.13;;;14.09;33.65
11678;BME280;5895;41.950;24.372;2023-02-11T12:11:35;87563.09;;;14.10;31.31
11678;BME280;5895;41.950;24.372;2023-02-11T12:14:13;87557.66;;;14.12;32.90
11678;BME280;5895;41.950;24.372;2023-02-11T12:16:51;87563.34;;;14.09;32.68
11678;BME280;5895;41.950;24.372;2023-02-11T12:19:46;87556.31;;;14.09;29.11
11678;BME280;5895;41.950;24.372;2023-02-11T12:22:25;87553.59;;;14.04;32.85
11678;BME280;5895;41.950;24.372;2023-02-11T12:25:07;87560.25;;;14.12;30.50
11678;BME280;5895;41.950;24.372;2023-02-11T12:27:48;87553.00;;;14.25;33.01
11678;BME280;5895;41.950;24.372;2023-02-11T12:30:38;87551.72;;;14.28;28.37
11678;BME280;5895;41.950;24.372;2023-02-11T12:33:14;87552.75;;;14.27;34.18
11678;BME280;5895;41.950;24.372;2023-02-11T12:35:53;87555.13;;;14.28;32.30
11678;BME280;5895;41.950;24.372;2023-02-11T12:38:34;87554.00;;;14.24;29.89
11678;BME280;5895;41.950;24.372;2023-02-11T12:41:18;87552.09;;;14.32;32.03
11678;BME280;5895;41.950;24.372;2023-02-11T12:44:15;87553.66;;;14.33;34.31
11678;BME280;5895;41.950;24.372;2023-02-11T12:46:49;87549.81;;;14.23;35.81
11678;BME280;5895;41.950;24.372;2023-02-11T12:49:30;87549.69;;;14.18;32.27
11678;BME280;5895;41.950;24.372;2023-02-11T12:52:15;87551.09;;;14.09;29.10
11678;BME280;5895;41.950;24.372;2023-02-11T12:54:48;87552.56;;;14.05;33.62
11678;BME280;5895;41.950;24.372;2023-02-11T12:57:22;87543.25;;;14.09;38.06
11678;BME280;5895;41.950;24.372;2023-02-11T12:59:57;87545.06;;;14.09;32.38
11678;BME280;5895;41.950;24.372;2023-02-11T13:02:33;87545.19;;;14.02;30.03
11678;BME280;5895;41.950;24.372;2023-02-11T13:05:17;87540.75;;;13.91;31.06
11678;BME280;5895;41.950;24.372;2023-02-11T13:07:46;87541.22;;;13.88;39.74
11678;BME280;5895;41.950;24.372;2023-02-11T13:10:25;87542.56;;;13.79;28.70
11678;BME280;5895;41.950;24.372;2023-02-11T13:12:53;87539.84;;;13.73;40.34
11678;BME280;5895;41.950;24.372;2023-02-11T13:15:40;87540.75;;;13.67;40.75
11678;BME280;5895;41.950;24.372;2023-02-11T13:18:23;87542.13;;;13.58;29.47
11678;BME280;5895;41.950;24.372;2023-02-11T13:20:59;87538.16;;;13.56;36.29
11678;BME280;5895;41.950;24.372;2023-02-11T13:23:37;87538.50;;;13.59;34.51
11678;BME280;5895;41.950;24.372;2023-02-11T13:26:11;87542.00;;;13.53;35.58
11678;BME280;5895;41.950;24.372;2023-02-11T13:28:47;87537.59;;;13.42;33.02